sensor_id;sensor_type;location;lat;lon;timestamp;P1;durP1;ratioP1;P2;durP2;ratioP2
33840;SDS011;20142;28.494;-16.312;2024-01-11T00:00:21;12.90;;;7.20;;
33840;SDS011;20142;28.494;-16.312;2024-01-11T00:05:23;13.82;;;5.97;;
33840;SDS011;20142;28.494;-16.312;2024-01-11T00:10:24;14.63;;;5.03;;
33840;SDS011;20142;28.494;-16.312;2024-01-11T00:15:26;15.00;;;4.68;;
33840;SDS011;20142;28.494;-16.312;2024-01-11T00:20:28;11.80;;;6.65;;
33840;SDS011;20142;28.494;-16.312;2024-01-11T00:25:30;14.05;;;5.38;;
33840;SDS011;20142;28.494;-16.312;2024-01-11T00:30:31;15.30;;;6.03;;
33840;SDS011;20142;28.494;-16.312;2024-01-11T00:35:33;13.13;;;6.85;;
33840;SDS011;20142;28.494;-16.312;2024-01-11T00:40:35;12.98;;;5.32;;
33840;SDS011;20142;28.494;-16.312;2024-01-11T00:45:36;15.38;;;4.90;;
33840;SDS011;20142;28.494;-16.312;2024-01-11T00:50:38;16.13;;;3.67;;
33840;SDS011;20142;28.494;-16.312;2024-01-11T00:55:40;10.68;;;3.70;;
33840;SDS011;20142;28.494;-16.312;2024-01-11T01:00:42;11.77;;;2.83;;
33840;SDS011;20142;28.494;-16.312;2024-01-11T01:05:43;9.98;;;3.63;;
33840;SDS011;20142;28.494;-16.312;2024-01-11T01:10:46;15.80;;;2.65;;
33840;SDS011;20142;28.494;-16.312;2024-01-11T01:15:48;13.27;;;3.58;;
33840;SDS011;20142;28.494;-16.312;2024-01-11T01:20:50;14.60;;;6.35;;
33840;SDS011;20142;28.494;-16.312;2024-01-11T01:25:52;11.70;;;5.38;;
33840;SDS011;20142;28.494;-16.312;2024-01-11T01:30:53;18.55;;;8.57;;
33840;SDS011;20142;28.494;-16.312;2024-01-11T01:35:55;23.02;;;10.10;;
33840;SDS011;20142;28.494;-16.312;2024-01-11T01:40:57;21.58;;;10.52;;
33840;SDS011;20142;28.494;-16.312;2024-01-11T01:45:58;17.95;;;9.52;;
33840;SDS011;20142;28.494;-16.312;2024-01-11T01:51:01;20.25;;;8.85;;
33840;SDS011;20142;28.494;-16.312;2024-01-11T01:56:04;25.08;;;10.65;;
33840;SDS011;20142;28.494;-16.312;2024-01-11T02:01:07;21.65;;;10.57;;
33840;SDS011;20142;28.494;-16.312;2024-01-11T02:06:09;20.80;;;8.98;;
33840;SDS011;20142;28.494;-16.312;2024-01-11T02:11:11;25.08;;;10.20;;
33840;SDS011;20142;28.494;-16.312;2024-01-11T02:16:12;21.83;;;8.45;;
33840;SDS011;20142;28.494;-16.312;2024-01-11T02:21:14;14.48;;;3.22;;
33840;SDS011;20142;28.494;-16.312;2024-01-11T02:26:17;11.43;;;2.95;;
33840;SDS011;20142;28.494;-16.312;2024-01-11T02:31:19;9.68;;;2.47;;
33840;SDS011;20142;28.494;-16.312;2024-01-11T02:36:21;7.57;;;2.83;;
33840;SDS011;20142;28.494;-16.312;2024-01-11T02:41:23;8.95;;;2.58;;
33840;SDS011;20142;28.494;-16.312;2024-01-11T02:46:25;8.98;;;1.80;;
33840;SDS011;20142;28.494;-16.312;2024-01-11T02:51:27;3.35;;;0.90;;
33840;SDS011;20142;28.494;-16.312;2024-01-11T02:56:29;4.45;;;0.85;;
33840;SDS011;20142;28.494;-16.312;2024-01-11T03:01:31;4.35;;;0.65;;
33840;SDS011;20142;28.494;-16.312;2024-01-11T03:06:33;5.90;;;0.68;;
33840;SDS011;20142;28.494;-16.312;2024-01-11T03:11:34;5.03;;;0.80;;
33840;SDS011;20142;28.494;-16.312;2024-01-11T03:16:38;2.85;;;0.60;;
33840;SDS011;20142;28.494;-16.312;2024-01-11T03:21:41;4.38;;;0.55;;
33840;SDS011;20142;28.494;-16.312;2024-01-11T03:26:47;5.82;;;0.70;;
33840;SDS011;20142;28.494;-16.312;2024-01-11T03:31:49;4.28;;;0.60;;
33840;SDS011;20142;28.494;-16.312;2024-01-11T03:36:51;3.35;;;0.50;;
33840;SDS011;20142;28.494;-16.312;2024-01-11T03:41:52;5.07;;;0.98;;
33840;SDS011;20142;28.494;-16.312;2024-01-11T03:46:54;4.65;;;0.70;;
33840;SDS011;20142;28.494;-16.312;2024-01-11T03:51:56;3.92;;;0.82;;
33840;SDS011;20142;28.494;-16.312;2024-01-11T03:56:57;3.15;;;0.70;;
33840;SDS011;20142;28.494;-16.312;2024-01-11T04:01:59;5.63;;;0.82;;
33840;SDS011;20142;28.494;-16.312;2024-01-11T04:07:01;8.57;;;1.30;;
33840;SDS011;20142;28.494;-16.312;2024-01-11T04:12:03;8.43;;;1.27;;
33840;SDS011;20142;28.494;-16.312;2024-01-11T04:17:05;10.00;;;1.60;;
33840;SDS011;20142;28.494;-16.312;2024-01-11T04:22:07;11.45;;;2.05;;
33840;SDS011;20142;28.494;-16.312;2024-01-11T04:27:09;17.90;;;2.13;;
33840;SDS011;20142;28.494;-16.312;2024-01-11T04:32:11;11.68;;;1.73;;
33840;SDS011;20142;28.494;-16.312;2024-01-11T04:37:13;9.68;;;1.30;;
33840;SDS011;20142;28.494;-16.312;2024-01-11T04:42:14;8.70;;;1.40;;
33840;SDS011;20142;28.494;-16.312;2024-01-11T04:47:16;17.45;;;1.67;;
33840;SDS011;20142;28.494;-16.312;2024-01-11T04:52:18;17.08;;;1.73;;
33840;SDS011;20142;28.494;-16.312;2024-01-11T04:57:19;12.43;;;1.35;;
33840;SDS011;20142;28.494;-16.312;2024-01-11T05:02:22;9.48;;;1.65;;
33840;SDS011;20142;28.494;-16.312;2024-01-11T05:07:23;13.20;;;1.63;;
33840;SDS011;20142;28.494;-16.312;2024-01-11T05:12:25;10.90;;;1.80;;
33840;SDS011;20142;28.494;-16.312;2024-01-11T05:17:27;10.57;;;1.90;;
33840;SDS011;20142;28.494;-16.312;2024-01-11T05:22:28;11.82;;;1.55;;
33840;SDS011;20142;28.494;-16.312;2024-01-11T05:27:30;14.10;;;1.55;;
33840;SDS011;20142;28.494;-16.312;2024-01-11T05:32:32;11.50;;;1.60;;
33840;SDS011;20142;28.494;-16.312;2024-01-11T05:37:33;14.88;;;1.63;;
33840;SDS011;20142;28.494;-16.312;2024-01-11T05:42:35;17.08;;;1.95;;
33840;SDS011;20142;28.494;-16.312;2024-01-11T05:47:38;14.15;;;2.20;;
33840;SDS011;20142;28.494;-16.312;2024-01-11T05:52:39;11.57;;;1.55;;
33840;SDS011;20142;28.494;-16.312;2024-01-11T05:57:41;15.82;;;1.73;;
33840;SDS011;20142;28.494;-16.312;2024-01-11T06:02:43;20.05;;;1.60;;
33840;SDS011;20142;28.494;-16.312;2024-01-11T06:07:44;13.18;;;1.63;;
33840;SDS011;20142;28.494;-16.312;2024-01-11T06:12:46;13.65;;;1.95;;
33840;SDS011;20142;28.494;-16.312;2024-01-11T06:17:48;12.80;;;1.77;;
33840;SDS011;20142;28.494;-16.312;2024-01-11T06:22:50;17.60;;;1.73;;
33840;SDS011;20142;28.494;-16.312;2024-01-11T06:27:51;20.42;;;2.25;;
33840;SDS011;20142;28.494;-16.312;2024-01-11T06:32:53;12.90;;;2.40;;
33840;SDS011;20142;28.494;-16.312;2024-01-11T06:37:55;17.80;;;1.80;;
33840;SDS011;20142;28.494;-16.312;2024-01-11T06:42:56;16.05;;;2.08;;
33840;SDS011;20142;28.494;-16.312;2024-01-11T06:47:58;12.35;;;1.80;;
33840;SDS011;20142;28.494;-16.312;2024-01-11T06:53:00;13.25;;;1.63;;
33840;SDS011;20142;28.494;-16.312;2024-01-11T06:58:03;17.27;;;2.58;;
33840;SDS011;20142;28.494;-16.312;2024-01-11T07:03:05;17.10;;;2.22;;
33840;SDS011;20142;28.494;-16.312;2024-01-11T07:08:06;28.73;;;2.45;;
33840;SDS011;20142;28.494;-16.312;2024-01-11T07:13:09;19.48;;;2.28;;
33840;SDS011;20142;28.494;-16.312;2024-01-11T07:18:11;20.85;;;2.25;;
33840;SDS011;20142;28.494;-16.312;2024-01-11T07:23:13;23.02;;;2.13;;
33840;SDS011;20142;28.494;-16.312;2024-01-11T07:28:16;21.60;;;1.90;;
33840;SDS011;20142;28.494;-16.312;2024-01-11T07:33:18;18.98;;;2.10;;
33840;SDS011;20142;28.494;-16.312;2024-01-11T07:38:21;33.75;;;2.75;;
33840;SDS011;20142;28.494;-16.312;2024-01-11T07:43:23;24.55;;;2.58;;
33840;SDS011;20142;28.494;-16.312;2024-01-11T07:48:24;25.77;;;2.97;;
33840;SDS011;20142;28.494;-16.312;2024-01-11T07:53:26;30.75;;;3.00;;
33840;SDS011;20142;28.494;-16.312;2024-01-11T07:58:28;25.55;;;2.90;;
33840;SDS011;20142;28.494;-16.312;2024-01-11T08:03:29;36.13;;;2.75;;
33840;SDS011;20142;28.494;-16.312;2024-01-11T08:08:31;27.52;;;3.13;;
33840;SDS011;20142;28.494;-16.312;2024-01-11T08:13:33;18.77;;;2.33;;
33840;SDS011;20142;28.494;-16.312;2024-01-11T08:18:35;24.92;;;2.55;;
33840;SDS011;20142;28.494;-16.312;2024-01-11T08:23:40;29.90;;;2.92;;
33840;SDS011;20142;28.494;-16.312;2024-01-11T08:28:45;40.78;;;3.75;;
33840;SDS011;20142;28.494;-16.312;2024-01-11T08:33:47;32.10;;;3.00;;
33840;SDS011;20142;28.494;-16.312;2024-01-11T08:38:49;30.83;;;3.83;;
33840;SDS011;20142;28.494;-16.312;2024-01-11T08:43:51;29.55;;;3.10;;
33840;SDS011;20142;28.494;-16.312;2024-01-11T08:48:54;31.95;;;2.60;;
33840;SDS011;20142;28.494;-16.312;2024-01-11T08:53:57;26.75;;;2.75;;
33840;SDS011;20142;28.494;-16.312;2024-01-11T08:58:59;18.48;;;2.92;;
33840;SDS011;20142;28.494;-16.312;2024-01-11T09:04:03;24.58;;;3.08;;
33840;SDS011;20142;28.494;-16.312;2024-01-11T09:09:06;31.85;;;3.22;;
33840;SDS011;20142;28.494;-16.312;2024-01-11T09:14:10;26.50;;;2.97;;
33840;SDS011;20142;28.494;-16.312;2024-01-11T09:19:13;24.08;;;3.13;;
33840;SDS011;20142;28.494;-16.312;2024-01-11T09:24:15;23.17;;;2.90;;
33840;SDS011;20142;28.494;-16.312;2024-01-11T09:29:17;38.33;;;2.92;;
33840;SDS011;20142;28.494;-16.312;2024-01-11T09:34:18;26.95;;;2.45;;
33840;SDS011;20142;28.494;-16.312;2024-01-11T09:39:20;31.75;;;3.15;;
33840;SDS011;20142;28.494;-16.312;2024-01-11T09:44:24;36.90;;;3.45;;
33840;SDS011;20142;28.494;-16.312;2024-01-11T09:49:27;30.05;;;3.20;;
33840;SDS011;20142;28.494;-16.312;2024-01-11T09:54:31;33.03;;;2.70;;
33840;SDS011;20142;28.494;-16.312;2024-01-11T09:59:33;29.40;;;2.88;;
33840;SDS011;20142;28.494;-16.312;2024-01-11T10:04:36;25.45;;;2.97;;
33840;SDS011;20142;28.494;-16.312;2024-01-11T10:09:39;24.08;;;3.10;;
33840;SDS011;20142;28.494;-16.312;2024-01-11T10:14:41;28.00;;;3.08;;
33840;SDS011;20142;28.494;-16.312;2024-01-11T10:19:43;25.50;;;3.10;;
33840;SDS011;20142;28.494;-16.312;2024-01-11T10:24:44;32.58;;;2.53;;
33840;SDS011;20142;28.494;-16.312;2024-01-11T10:29:46;31.05;;;3.15;;
33840;SDS011;20142;28.494;-16.312;2024-01-11T10:34:48;33.72;;;3.47;;
33840;SDS011;20142;28.494;-16.312;2024-01-11T10:39:50;26.35;;;3.53;;
33840;SDS011;20142;28.494;-16.312;2024-01-11T10:44:54;23.90;;;2.97;;
33840;SDS011;20142;28.494;-16.312;2024-01-11T10:49:58;28.83;;;2.88;;
33840;SDS011;20142;28.494;-16.312;2024-01-11T10:55:03;28.17;;;3.05;;
33840;SDS011;20142;28.494;-16.312;2024-01-11T11:00:06;30.13;;;3.63;;
33840;SDS011;20142;28.494;-16.312;2024-01-11T11:05:12;24.70;;;2.70;;
33840;SDS011;20142;28.494;-16.312;2024-01-11T11:10:15;35.95;;;2.97;;
33840;SDS011;20142;28.494;-16.312;2024-01-11T11:15:19;26.55;;;3.20;;
33840;SDS011;20142;28.494;-16.312;2024-01-11T11:20:22;20.02;;;2.83;;
33840;SDS011;20142;28.494;-16.312;2024-01-11T11:25:24;23.13;;;3.70;;
33840;SDS011;20142;28.494;-16.312;2024-01-11T11:30:27;25.27;;;3.10;;
33840;SDS011;20142;28.494;-16.312;2024-01-11T11:35:29;37.97;;;4.43;;
33840;SDS011;20142;28.494;-16.312;2024-01-11T11:40:36;25.58;;;2.60;;
33840;SDS011;20142;28.494;-16.312;2024-01-11T11:45:46;23.02;;;2.90;;
33840;SDS011;20142;28.494;-16.312;2024-01-11T11:51:00;38.20;;;3.35;;
33840;SDS011;20142;28.494;-16.312;2024-01-11T11:56:12;26.05;;;2.92;;
33840;SDS011;20142;28.494;-16.312;2024-01-11T12:01:17;40.35;;;3.40;;
33840;SDS011;20142;28.494;-16.312;2024-01-11T12:06:20;25.50;;;3.03;;
33840;SDS011;20142;28.494;-16.312;2024-01-11T12:11:25;30.13;;;3.22;;
33840;SDS011;20142;28.494;-16.312;2024-01-11T12:16:27;19.85;;;2.90;;
33840;SDS011;20142;28.494;-16.312;2024-01-11T12:21:29;23.52;;;2.80;;
33840;SDS011;20142;28.494;-16.312;2024-01-11T12:26:31;21.75;;;3.13;;
33840;SDS011;20142;28.494;-16.312;2024-01-11T12:31:33;16.38;;;2.28;;
33840;SDS011;20142;28.494;-16.312;2024-01-11T12:36:35;20.27;;;2.53;;
33840;SDS011;20142;28.494;-16.312;2024-01-11T12:41:37;20.33;;;2.75;;
33840;SDS011;20142;28.494;-16.312;2024-01-11T12:46:39;21.85;;;3.30;;
33840;SDS011;20142;28.494;-16.312;2024-01-11T13:54:04;21.83;;;2.40;;
33840;SDS011;20142;28.494;-16.312;2024-01-11T13:59:06;29.27;;;2.58;;
33840;SDS011;20142;28.494;-16.312;2024-01-11T14:04:08;20.58;;;2.42;;
33840;SDS011;20142;28.494;-16.312;2024-01-11T14:09:10;12.70;;;2.60;;
33840;SDS011;20142;28.494;-16.312;2024-01-11T14:14:13;23.15;;;2.95;;
33840;SDS011;20142;28.494;-16.312;2024-01-11T14:19:15;18.15;;;4.18;;
33840;SDS011;20142;28.494;-16.312;2024-01-11T14:24:16;23.45;;;2.65;;
33840;SDS011;20142;28.494;-16.312;2024-01-11T14:29:18;25.42;;;2.78;;
33840;SDS011;20142;28.494;-16.312;2024-01-11T14:34:20;19.27;;;2.53;;
33840;SDS011;20142;28.494;-16.312;2024-01-11T14:39:21;19.95;;;2.83;;
33840;SDS011;20142;28.494;-16.312;2024-01-11T14:44:24;25.83;;;4.75;;
33840;SDS011;20142;28.494;-16.312;2024-01-11T14:49:25;22.42;;;3.00;;
33840;SDS011;20142;28.494;-16.312;2024-01-11T14:54:29;31.60;;;3.22;;
33840;SDS011;20142;28.494;-16.312;2024-01-11T14:59:31;22.77;;;3.28;;
33840;SDS011;20142;28.494;-16.312;2024-01-11T15:04:33;24.73;;;3.17;;
33840;SDS011;20142;28.494;-16.312;2024-01-11T15:09:34;25.42;;;3.63;;
33840;SDS011;20142;28.494;-16.312;2024-01-11T15:14:36;21.25;;;2.58;;
33840;SDS011;20142;28.494;-16.312;2024-01-11T15:19:38;18.08;;;2.92;;
33840;SDS011;20142;28.494;-16.312;2024-01-11T15:24:40;28.58;;;3.00;;
33840;SDS011;20142;28.494;-16.312;2024-01-11T15:29:45;29.90;;;4.25;;
33840;SDS011;20142;28.494;-16.312;2024-01-11T15:34:48;27.15;;;3.30;;
33840;SDS011;20142;28.494;-16.312;2024-01-11T15:39:50;28.15;;;4.30;;
33840;SDS011;20142;28.494;-16.312;2024-01-11T15:44:53;31.85;;;4.10;;
33840;SDS011;20142;28.494;-16.312;2024-01-11T15:49:55;26.67;;;3.80;;
33840;SDS011;20142;28.494;-16.312;2024-01-11T15:54:56;21.33;;;4.05;;
33840;SDS011;20142;28.494;-16.312;2024-01-11T16:00:00;22.30;;;3.65;;
33840;SDS011;20142;28.494;-16.312;2024-01-11T16:05:05;22.50;;;3.60;;
33840;SDS011;20142;28.494;-16.312;2024-01-11T16:10:07;18.75;;;3.38;;
33840;SDS011;20142;28.494;-16.312;2024-01-11T16:15:10;16.02;;;3.22;;
33840;SDS011;20142;28.494;-16.312;2024-01-11T16:20:12;20.30;;;4.22;;
33840;SDS011;20142;28.494;-16.312;2024-01-11T16:25:14;18.30;;;3.65;;
33840;SDS011;20142;28.494;-16.312;2024-01-11T16:30:16;23.60;;;3.38;;
33840;SDS011;20142;28.494;-16.312;2024-01-11T16:35:18;25.75;;;3.58;;
33840;SDS011;20142;28.494;-16.312;2024-01-11T16:40:20;20.00;;;3.00;;
33840;SDS011;20142;28.494;-16.312;2024-01-11T16:45:22;20.88;;;3.47;;
33840;SDS011;20142;28.494;-16.312;2024-01-11T16:50:24;20.35;;;3.28;;
33840;SDS011;20142;28.494;-16.312;2024-01-11T16:55:26;16.42;;;3.22;;
33840;SDS011;20142;28.494;-16.312;2024-01-11T17:00:27;16.45;;;3.08;;
33840;SDS011;20142;28.494;-16.312;2024-01-11T17:05:29;17.75;;;3.67;;
33840;SDS011;20142;28.494;-16.312;2024-01-11T17:10:31;28.45;;;3.85;;
33840;SDS011;20142;28.494;-16.312;2024-01-11T17:15:34;21.20;;;3.72;;
33840;SDS011;20142;28.494;-16.312;2024-01-11T17:20:36;16.83;;;3.83;;
33840;SDS011;20142;28.494;-16.312;2024-01-11T17:25:38;12.60;;;2.95;;
33840;SDS011;20142;28.494;-16.312;2024-01-11T17:30:39;24.58;;;3.75;;
33840;SDS011;20142;28.494;-16.312;2024-01-11T17:35:41;19.67;;;3.30;;
33840;SDS011;20142;28.494;-16.312;2024-01-11T17:40:43;20.45;;;2.88;;
33840;SDS011;20142;28.494;-16.312;2024-01-11T17:45:45;19.05;;;3.25;;
33840;SDS011;20142;28.494;-16.312;2024-01-11T17:50:51;33.70;;;4.47;;
33840;SDS011;20142;28.494;-16.312;2024-01-11T17:55:53;26.02;;;4.30;;
33840;SDS011;20142;28.494;-16.312;2024-01-11T18:00:55;25.65;;;3.50;;
33840;SDS011;20142;28.494;-16.312;2024-01-11T18:05:58;35.00;;;4.55;;
33840;SDS011;20142;28.494;-16.312;2024-01-11T18:11:00;30.90;;;4.40;;
33840;SDS011;20142;28.494;-16.312;2024-01-11T18:16:03;32.13;;;4.88;;
33840;SDS011;20142;28.494;-16.312;2024-01-11T18:21:06;28.48;;;4.65;;
33840;SDS011;20142;28.494;-16.312;2024-01-11T18:26:07;34.15;;;4.57;;
33840;SDS011;20142;28.494;-16.312;2024-01-11T18:31:13;26.20;;;4.53;;
33840;SDS011;20142;28.494;-16.312;2024-01-11T18:36:16;30.63;;;5.03;;
33840;SDS011;20142;28.494;-16.312;2024-01-11T18:41:20;37.75;;;4.82;;
33840;SDS011;20142;28.494;-16.312;2024-01-11T18:46:21;34.88;;;6.05;;
33840;SDS011;20142;28.494;-16.312;2024-01-11T18:51:23;35.78;;;5.70;;
33840;SDS011;20142;28.494;-16.312;2024-01-11T18:56:25;44.92;;;4.97;;
33840;SDS011;20142;28.494;-16.312;2024-01-11T19:01:27;40.38;;;6.15;;
33840;SDS011;20142;28.494;-16.312;2024-01-11T19:06:29;31.60;;;4.93;;
33840;SDS011;20142;28.494;-16.312;2024-01-11T19:11:31;36.38;;;5.38;;
33840;SDS011;20142;28.494;-16.312;2024-01-11T19:16:33;28.00;;;4.43;;
33840;SDS011;20142;28.494;-16.312;2024-01-11T19:21:37;35.25;;;4.80;;
33840;SDS011;20142;28.494;-16.312;2024-01-11T19:26:39;28.60;;;4.57;;
33840;SDS011;20142;28.494;-16.312;2024-01-11T19:31:48;45.92;;;5.07;;
33840;SDS011;20142;28.494;-16.312;2024-01-11T19:36:50;37.20;;;5.10;;
33840;SDS011;20142;28.494;-16.312;2024-01-11T19:41:52;31.25;;;4.30;;
33840;SDS011;20142;28.494;-16.312;2024-01-11T19:46:54;25.33;;;3.95;;
33840;SDS011;20142;28.494;-16.312;2024-01-11T19:51:56;30.38;;;4.70;;
33840;SDS011;20142;28.494;-16.312;2024-01-11T19:56:58;40.15;;;4.60;;
33840;SDS011;20142;28.494;-16.312;2024-01-11T20:02:00;28.27;;;4.93;;
33840;SDS011;20142;28.494;-16.312;2024-01-11T20:07:04;31.48;;;3.65;;
33840;SDS011;20142;28.494;-16.312;2024-01-11T20:12:06;32.72;;;3.90;;
33840;SDS011;20142;28.494;-16.312;2024-01-11T20:17:09;33.85;;;4.38;;
33840;SDS011;20142;28.494;-16.312;2024-01-11T20:22:11;36.08;;;4.05;;
33840;SDS011;20142;28.494;-16.312;2024-01-11T20:27:13;30.05;;;3.63;;
33840;SDS011;20142;28.494;-16.312;2024-01-11T20:32:16;32.40;;;3.67;;
33840;SDS011;20142;28.494;-16.312;2024-01-11T20:37:18;26.50;;;3.42;;
33840;SDS011;20142;28.494;-16.312;2024-01-11T20:42:20;25.42;;;2.75;;
33840;SDS011;20142;28.494;-16.312;2024-01-11T20:47:22;32.00;;;3.33;;
33840;SDS011;20142;28.494;-16.312;2024-01-11T20:52:26;32.47;;;4.20;;
33840;SDS011;20142;28.494;-16.312;2024-01-11T20:57:30;38.40;;;3.38;;
33840;SDS011;20142;28.494;-16.312;2024-01-11T21:02:33;24.60;;;3.22;;
33840;SDS011;20142;28.494;-16.312;2024-01-11T21:07:35;32.22;;;3.50;;
33840;SDS011;20142;28.494;-16.312;2024-01-11T21:12:37;30.95;;;3.45;;
33840;SDS011;20142;28.494;-16.312;2024-01-11T21:17:39;24.55;;;2.58;;
33840;SDS011;20142;28.494;-16.312;2024-01-11T21:22:41;37.50;;;3.58;;
33840;SDS011;20142;28.494;-16.312;2024-01-11T21:27:43;25.85;;;3.03;;
33840;SDS011;20142;28.494;-16.312;2024-01-11T21:32:45;23.95;;;3.15;;
33840;SDS011;20142;28.494;-16.312;2024-01-11T21:37:47;28.42;;;3.33;;
33840;SDS011;20142;28.494;-16.312;2024-01-11T21:42:48;21.98;;;3.10;;
33840;SDS011;20142;28.494;-16.312;2024-01-11T21:47:50;24.27;;;4.00;;
33840;SDS011;20142;28.494;-16.312;2024-01-11T21:52:52;22.73;;;3.80;;
33840;SDS011;20142;28.494;-16.312;2024-01-11T21:57:54;24.55;;;3.30;;
33840;SDS011;20142;28.494;-16.312;2024-01-11T22:02:56;22.13;;;3.05;;
33840;SDS011;20142;28.494;-16.312;2024-01-11T22:08:01;29.15;;;3.05;;
33840;SDS011;20142;28.494;-16.312;2024-01-11T22:13:03;26.52;;;3.40;;
33840;SDS011;20142;28.494;-16.312;2024-01-11T22:18:05;27.35;;;3.25;;
33840;SDS011;20142;28.494;-16.312;2024-01-11T22:23:07;31.00;;;3.85;;
33840;SDS011;20142;28.494;-16.312;2024-01-11T22:28:08;38.78;;;4.18;;
33840;SDS011;20142;28.494;-16.312;2024-01-11T22:33:10;31.83;;;3.67;;
33840;SDS011;20142;28.494;-16.312;2024-01-11T22:38:12;33.75;;;3.78;;
33840;SDS011;20142;28.494;-16.312;2024-01-11T22:43:14;28.52;;;3.95;;
33840;SDS011;20142;28.494;-16.312;2024-01-11T22:48:15;29.00;;;3.47;;
33840;SDS011;20142;28.494;-16.312;2024-01-11T22:53:17;32.53;;;4.10;;
33840;SDS011;20142;28.494;-16.312;2024-01-11T22:58:18;25.17;;;3.22;;
33840;SDS011;20142;28.494;-16.312;2024-01-11T23:03:21;32.45;;;3.97;;
33840;SDS011;20142;28.494;-16.312;2024-01-11T23:08:23;30.60;;;3.88;;
33840;SDS011;20142;28.494;-16.312;2024-01-11T23:13:24;30.73;;;3.47;;
33840;SDS011;20142;28.494;-16.312;2024-01-11T23:18:26;36.78;;;3.90;;
33840;SDS011;20142;28.494;-16.312;2024-01-11T23:23:28;32.50;;;4.05;;
33840;SDS011;20142;28.494;-16.312;2024-01-11T23:28:29;30.48;;;3.28;;
33840;SDS011;20142;28.494;-16.312;2024-01-11T23:33:31;33.97;;;3.72;;
33840;SDS011;20142;28.494;-16.312;2024-01-11T23:38:33;21.50;;;3.53;;
33840;SDS011;20142;28.494;-16.312;2024-01-11T23:43:35;21.98;;;3.58;;
33840;SDS011;20142;28.494;-16.312;2024-01-11T23:48:37;26.90;;;4.10;;
33840;SDS011;20142;28.494;-16.312;2024-01-11T23:53:38;25.52;;;4.65;;
33840;SDS011;20142;28.494;-16.312;2024-01-11T23:58:40;28.30;;;4.40;;
